Time;durP1;ratioP1;P1;durP2;ratioP2;P2;SDS_P1;SDS_P2;PMS_P1;PMS_P2;Temp;Humidity;BMP_temperature;BMP_pressure;BME280_temperature;BME280_humidity;BME280_pressure;Samples;Min_cycle;Max_cycle;Signal;HPM_P1;HPM_P2
2022/07/15 00:02:08;;;;;;;4.38;2.70;;;;;;;18.36;85.67;98368.88;5071315;28;20538;-40
2022/07/15 00:04:34;;;;;;;3.55;2.80;;;;;;;18.34;85.42;98355.00;5088970;28;20057;-40
2022/07/15 00:07:01;;;;;;;2.67;2.40;;;;;;;18.34;85.36;98365.53;5089299;28;20040;-40
2022/07/15 00:10:27;;;;;;;2.50;2.30;;;;;;;18.35;85.04;98359.31;5071720;28;20060;-40
2022/07/15 00:12:23;;;;;;;4.80;2.30;;;;;;;18.36;84.60;98365.41;5075990;28;20150;-39
2022/07/15 00:14:48;;;;;;;4.18;2.60;;;;;;;18.33;84.27;98366.50;5052729;28;20093;-40
2022/07/15 00:17:14;;;;;;;3.40;2.58;;;;;;;18.30;84.23;98361.50;5071080;28;20044;-40
2022/07/15 00:19:40;;;;;;;3.45;2.50;;;;;;;18.26;83.59;98375.06;5089100;28;20423;-40
2022/07/15 00:22:06;;;;;;;2.80;2.50;;;;;;;18.21;83.44;98381.53;5088636;28;20135;-41
2022/07/15 00:24:32;;;;;;;4.68;2.40;;;;;;;18.15;83.15;98368.09;5070446;28;20059;-39
2022/07/15 00:26:58;;;;;;;4.95;2.60;;;;;;;18.11;83.09;98364.03;5087674;28;20043;-39
2022/07/15 00:29:26;;;;;;;3.63;2.45;;;;;;;18.07;82.96;98365.28;5088775;28;20047;-44
2022/07/15 00:31:53;;;;;;;3.33;2.22;;;;;;;18.07;82.86;98366.13;5089256;28;20036;-40
2022/07/15 00:34:18;;;;;;;3.45;2.35;;;;;;;18.01;82.84;98357.91;5088949;28;20043;-40
2022/07/15 00:36:44;;;;;;;3.53;2.50;;;;;;;18.05;82.64;98368.06;5089250;28;20708;-40
2022/07/15 00:39:10;;;;;;;6.32;2.50;;;;;;;18.04;82.90;98370.81;5061898;28;20041;-40
2022/07/15 00:41:37;;;;;;;4.25;2.25;;;;;;;17.96;83.08;98362.72;5070773;28;20572;-40
2022/07/15 00:44:04;;;;;;;4.38;2.80;;;;;;;17.97;82.93;98364.41;5088193;28;20466;-40
2022/07/15 00:46:30;;;;;;;2.55;2.30;;;;;;;17.87;83.02;98353.84;5070561;28;20043;-40
2022/07/15 00:48:58;;;;;;;5.40;2.42;;;;;;;17.92;83.10;98374.47;5088174;28;20143;-39
2022/07/15 00:51:24;;;;;;;5.93;2.45;;;;;;;17.85;83.66;98368.91;5070811;28;20499;-40
2022/07/15 00:53:50;;;;;;;3.50;2.40;;;;;;;17.87;83.99;98367.00;5070987;28;20044;-39
2022/07/15 00:56:18;;;;;;;2.35;2.15;;;;;;;17.86;83.94;98378.47;5070406;28;20040;-41
2022/07/15 00:58:44;;;;;;;2.78;2.22;;;;;;;17.82;84.21;98368.34;5088619;28;20051;-40
2022/07/15 01:01:10;;;;;;;2.55;2.35;;;;;;;17.79;84.36;98372.88;5070411;28;20040;-40
2022/07/15 01:03:36;;;;;;;3.17;2.63;;;;;;;17.81;84.79;98377.19;5070527;28;20423;-40
2022/07/15 01:06:02;;;;;;;5.25;2.45;;;;;;;17.79;85.03;98383.41;5088651;28;20047;-40
2022/07/15 01:08:29;;;;;;;2.92;2.50;;;;;;;17.77;85.17;98380.09;5070917;28;20063;-40
2022/07/15 01:10:54;;;;;;;7.43;2.33;;;;;;;17.69;85.12;98369.38;5073016;28;20048;-41
2022/07/15 01:13:21;;;;;;;2.42;2.22;;;;;;;17.79;85.40;98387.84;5074386;28;20059;-39
2022/07/15 01:15:48;;;;;;;5.18;2.17;;;;;;;17.70;85.25;98380.72;5057323;28;20044;-40
2022/07/15 01:18:14;;;;;;;3.20;2.50;;;;;;;17.76;85.29;98404.69;5049687;28;20088;-40
2022/07/15 01:20:43;;;;;;;2.70;2.50;;;;;;;17.75;85.76;98391.69;5091579;28;20032;-39
2022/07/15 01:23:09;;;;;;;2.70;2.15;;;;;;;17.73;85.85;98401.50;5072615;28;20051;-40
2022/07/15 01:25:40;;;;;;;3.13;2.40;;;;;;;17.70;85.91;98396.50;5073931;28;20075;-40
2022/07/15 01:28:09;;;;;;;2.83;2.50;;;;;;;17.57;86.04;98391.41;5057625;28;20080;-39
2022/07/15 01:30:36;;;;;;;3.00;2.42;;;;;;;17.66;86.23;98408.22;5057015;28;20142;-40
2022/07/15 01:33:02;;;;;;;4.35;2.53;;;;;;;17.65;86.68;98417.91;5074145;28;20112;-40
2022/07/15 01:35:28;;;;;;;2.58;2.38;;;;;;;17.65;86.85;98417.06;5056914;28;20047;-39
2022/07/15 01:37:54;;;;;;;3.50;2.20;;;;;;;17.69;87.17;98426.38;5074230;28;20466;-40
2022/07/15 01:40:20;;;;;;;4.60;2.70;;;;;;;17.74;87.19;98424.22;5073947;28;20036;-40
2022/07/15 01:42:46;;;;;;;3.17;2.53;;;;;;;17.73;87.30;98417.28;5077027;28;20048;-40
2022/07/15 01:45:14;;;;;;;3.17;2.67;;;;;;;17.73;87.07;98420.75;5085700;28;20090;-40
2022/07/15 01:47:47;;;;;;;3.42;2.58;;;;;;;17.72;86.96;98415.59;5057453;28;20093;-39
2022/07/15 01:50:21;;;;;;;4.30;2.70;;;;;;;17.58;87.40;98408.03;5074167;28;20511;-39
2022/07/15 01:52:58;;;;;;;5.85;2.50;;;;;;;17.63;87.56;98413.75;5057146;28;20031;-41
2022/07/15 01:55:27;;;;;;;3.95;2.70;;;;;;;17.64;87.67;98415.41;5073348;28;20074;-40
2022/07/15 01:57:54;;;;;;;3.92;2.75;;;;;;;17.58;88.08;98419.38;5073553;28;20039;-40
2022/07/15 02:00:20;;;;;;;4.22;2.92;;;;;;;17.53;88.59;98423.34;5073246;28;20503;-40
2022/07/15 02:02:47;;;;;;;4.97;3.13;;;;;;;17.36;89.44;98422.94;5073069;28;20046;-39
2022/07/15 02:05:18;;;;;;;5.85;3.50;;;;;;;17.23;89.77;98410.91;5073253;28;20048;-40
2022/07/15 02:07:45;;;;;;;12.75;9.13;;;;;;;17.22;91.09;98423.19;5073381;28;20047;-40
2022/07/15 02:10:14;;;;;;;8.45;6.88;;;;;;;17.24;91.01;98434.44;5073632;28;20047;-41
2022/07/15 02:12:45;;;;;;;8.90;6.47;;;;;;;17.29;90.75;98432.25;5073470;28;20051;-39
2022/07/15 02:15:12;;;;;;;8.02;7.22;;;;;;;17.28;90.87;98422.69;5073224;28;20062;-39
2022/07/15 02:17:44;;;;;;;8.60;6.82;;;;;;;17.37;90.73;98434.28;5085563;28;20044;-40
2022/07/15 02:20:11;;;;;;;6.85;6.15;;;;;;;17.36;91.13;98436.06;5073092;28;20052;-40
2022/07/15 02:22:37;;;;;;;6.18;5.60;;;;;;;17.26;91.26;98418.53;5072513;28;20044;-40
2022/07/15 02:25:04;;;;;;;6.45;5.05;;;;;;;17.38;91.46;98440.38;5072745;28;20536;-40
2022/07/15 02:27:31;;;;;;;7.18;5.70;;;;;;;17.44;91.29;98437.22;5090061;28;20055;-40
2022/07/15 02:29:56;;;;;;;6.07;5.28;;;;;;;17.46;91.42;98430.03;5090883;28;20040;-41
2022/07/15 02:32:24;;;;;;;7.07;5.60;;;;;;;17.48;91.35;98439.44;5073181;28;20393;-40
2022/07/15 02:34:50;;;;;;;6.40;5.80;;;;;;;17.51;91.31;98441.00;5072300;28;20051;-40
2022/07/15 02:37:16;;;;;;;9.00;6.82;;;;;;;17.54;91.01;98441.59;5055915;28;20040;-39
2022/07/15 02:39:41;;;;;;;6.85;6.15;;;;;;;17.55;90.91;98440.63;5056283;28;20040;-40
2022/07/15 02:42:07;;;;;;;8.52;7.63;;;;;;;17.59;90.89;98443.81;5056107;28;20047;-40
2022/07/15 02:44:37;;;;;;;7.03;6.32;;;;;;;17.59;90.98;98438.56;5056399;28;20585;-40
2022/07/15 02:47:03;;;;;;;6.82;5.80;;;;;;;17.57;90.83;98438.72;5072130;28;20119;-40
2022/07/15 02:49:30;;;;;;;5.55;5.05;;;;;;;17.55;90.80;98451.13;5071176;28;20715;-40
2022/07/15 02:51:56;;;;;;;7.13;5.05;;;;;;;17.61;90.58;98448.03;5072848;28;20511;-41
2022/07/15 02:54:25;;;;;;;9.68;4.93;;;;;;;17.73;90.19;98451.44;5072684;28;20618;-39
2022/07/15 02:56:51;;;;;;;3.80;3.15;;;;;;;17.66;89.27;98430.09;5072225;28;20131;-39
2022/07/15 02:59:17;;;;;;;4.35;3.92;;;;;;;17.58;89.26;98444.81;5086069;28;20039;-39
2022/07/15 03:01:44;;;;;;;4.35;3.00;;;;;;;17.56;89.14;98438.84;5072086;28;20040;-40
2022/07/15 03:04:12;;;;;;;3.80;3.40;;;;;;;17.57;88.67;98449.22;5055402;28;20088;-40
2022/07/15 03:06:38;;;;;;;3.45;2.58;;;;;;;17.57;87.95;98445.75;5071989;28;20040;-41
2022/07/15 03:09:05;;;;;;;3.30;2.97;;;;;;;17.44;88.39;98426.69;5072520;28;20433;-39
2022/07/15 03:11:31;;;;;;;4.88;2.83;;;;;;;17.56;87.95;98451.97;5055521;28;20036;-42
2022/07/15 03:13:57;;;;;;;4.40;2.53;;;;;;;17.56;86.69;98463.31;5072635;28;20130;-40
2022/07/15 03:16:24;;;;;;;3.65;2.55;;;;;;;17.69;86.52;98460.56;5072431;28;20036;-41
2022/07/15 03:18:51;;;;;;;4.28;2.35;;;;;;;17.76;85.68;98453.81;5055086;28;20046;-42
2022/07/15 03:21:18;;;;;;;3.60;3.13;;;;;;;17.85;84.48;98466.19;5072043;28;20044;-41
2022/07/15 03:23:47;;;;;;;;;;;;;;;17.84;83.65;98476.84;5072181;28;20067;-40
2022/07/15 03:26:12;;;;;;;3.55;2.00;;;;;;;17.82;83.09;98478.75;5071794;28;20303;-41
2022/07/15 03:28:40;;;;;;;2.80;2.03;;;;;;;17.81;83.04;98477.94;5071939;28;20173;-41
2022/07/15 03:31:06;;;;;;;6.10;2.20;;;;;;;17.82;82.68;98479.59;5064757;28;20058;-41
2022/07/15 03:33:32;;;;;;;4.63;2.30;;;;;;;17.80;82.55;98481.50;5071412;28;20040;-39
2022/07/15 03:35:58;;;;;;;2.67;2.30;;;;;;;17.70;82.79;98467.47;5068174;28;20416;-41
2022/07/15 03:38:27;;;;;;;4.03;2.28;;;;;;;17.70;82.68;98470.94;5071818;28;20526;-40
2022/07/15 03:40:53;;;;;;;2.80;1.75;;;;;;;17.63;82.88;98487.34;5055342;28;20060;-39
2022/07/15 03:43:19;;;;;;;2.53;2.33;;;;;;;17.53;83.55;98489.88;5071878;28;20128;-40
2022/07/15 03:45:48;;;;;;;3.63;2.22;;;;;;;17.61;83.57;98497.97;5071152;28;20392;-40
2022/07/15 03:48:16;;;;;;;4.45;2.50;;;;;;;17.56;83.35;98486.97;5071458;28;20036;-41
2022/07/15 03:50:41;;;;;;;4.10;2.58;;;;;;;17.60;83.65;98483.16;5071493;28;20051;-40
2022/07/15 03:53:07;;;;;;;2.38;2.10;;;;;;;17.63;83.84;98490.81;5071720;28;20047;-40
2022/07/15 03:55:33;;;;;;;5.03;2.92;;;;;;;17.59;83.75;98488.50;5071349;28;20474;-40
2022/07/15 03:57:59;;;;;;;3.08;2.55;;;;;;;17.56;84.13;98491.41;5089831;28;20535;-41
2022/07/15 04:00:25;;;;;;;3.78;2.83;;;;;;;17.42;84.04;98473.31;5054048;28;20408;-40
2022/07/15 04:02:50;;;;;;;6.43;2.60;;;;;;;17.42;84.65;98484.66;5071395;28;20044;-41
2022/07/15 04:05:16;;;;;;;2.75;2.50;;;;;;;17.45;84.75;98499.31;5070950;28;20108;-39
2022/07/15 04:07:42;;;;;;;2.90;2.47;;;;;;;17.48;84.18;98497.25;5089584;28;20043;-39
2022/07/15 04:10:08;;;;;;;3.72;2.30;;;;;;;17.52;84.17;98498.72;5054772;28;20497;-40
2022/07/15 04:12:34;;;;;;;3.30;2.35;;;;;;;17.47;84.38;98503.50;5071214;28;20032;-39
2022/07/15 04:14:59;;;;;;;2.85;2.30;;;;;;;17.44;84.99;98516.88;5070975;28;20515;-40
2022/07/15 04:17:25;;;;;;;3.20;2.58;;;;;;;17.40;85.19;98502.31;5071226;28;20762;-40
2022/07/15 04:19:51;;;;;;;4.07;2.40;;;;;;;17.46;84.89;98491.31;5071163;28;20054;-40
2022/07/15 04:22:17;;;;;;;2.67;2.10;;;;;;;17.57;84.74;98506.22;5054419;28;20045;-40
2022/07/15 04:24:50;;;;;;;4.20;2.30;;;;;;;17.61;84.29;98508.50;5063689;28;20052;-40
2022/07/15 04:27:17;;;;;;;2.47;1.75;;;;;;;17.65;83.46;98525.66;5068958;28;20040;-40
2022/07/15 04:29:44;;;;;;;4.03;1.75;;;;;;;17.69;82.81;98508.69;5059021;28;20040;-39
2022/07/15 04:32:12;;;;;;;3.33;1.90;;;;;;;17.79;82.50;98519.31;5071246;28;20055;-40
2022/07/15 04:34:41;;;;;;;4.40;1.83;;;;;;;17.89;82.10;98528.09;5071340;28;20047;-40
2022/07/15 04:37:07;;;;;;;2.90;1.60;;;;;;;17.96;81.47;98539.75;5088701;28;20028;-39
2022/07/15 04:39:33;;;;;;;2.78;1.60;;;;;;;17.90;81.02;98521.84;5071244;28;20036;-40
2022/07/15 04:41:59;;;;;;;2.88;1.90;;;;;;;18.02;80.82;98535.78;5071103;28;20129;-41
2022/07/15 04:44:28;;;;;;;2.45;1.50;;;;;;;18.04;80.50;98521.56;5055618;28;20126;-40
2022/07/15 04:46:56;;;;;;;3.55;1.77;;;;;;;18.17;80.16;98548.50;5075007;28;20050;-39
2022/07/15 04:52:17;;;;;;;3.05;1.83;;;;;;;18.36;80.10;98555.72;5074830;28;20063;-40
2022/07/15 04:54:46;;;;;;;4.40;1.85;;;;;;;18.33;79.41;98541.94;5074220;28;20051;-40
2022/07/15 04:57:12;;;;;;;2.08;1.88;;;;;;;18.42;79.78;98565.69;5074977;28;20043;-40
2022/07/15 04:59:38;;;;;;;1.90;1.70;;;;;;;18.41;79.41;98560.56;5073999;28;20093;-40
2022/07/15 05:02:09;;;;;;;5.57;2.17;;;;;;;18.37;79.27;98548.66;5092469;28;20040;-40
2022/07/15 05:04:39;;;;;;;2.42;1.75;;;;;;;18.55;79.19;98566.38;5073735;28;20044;-40
2022/07/15 05:07:07;;;;;;;4.70;2.00;;;;;;;18.64;79.14;98572.66;5074793;28;20048;-42
2022/07/15 05:09:35;;;;;;;1.75;1.65;;;;;;;18.70;78.88;98576.56;5057716;28;20568;-41
2022/07/15 05:12:01;;;;;;;1.90;1.70;;;;;;;18.71;78.84;98583.50;5072651;28;20079;-40
2022/07/15 05:14:27;;;;;;;2.38;2.10;;;;;;;18.66;78.64;98564.63;5073430;28;20579;-41
2022/07/15 05:16:53;;;;;;;5.00;2.08;;;;;;;18.75;78.42;98569.94;5074264;28;20134;-41
2022/07/15 05:19:19;;;;;;;3.25;1.83;;;;;;;18.80;78.10;98565.09;5080542;28;20131;-41
2022/07/15 05:21:46;;;;;;;4.82;1.75;;;;;;;18.91;78.21;98543.94;5094637;28;20130;-40
2022/07/15 05:24:12;;;;;;;2.95;1.80;;;;;;;19.17;77.64;98532.94;5093555;28;20048;-40
2022/07/15 05:26:38;;;;;;;2.45;1.85;;;;;;;19.32;77.25;98536.84;5074422;28;20048;-41
2022/07/15 05:29:04;;;;;;;5.03;2.28;;;;;;;19.43;76.92;98520.94;5074432;28;20040;-40
2022/07/15 05:31:30;;;;;;;3.67;1.60;;;;;;;19.49;76.10;98525.69;5073985;28;20050;-40
2022/07/15 05:33:59;;;;;;;3.95;1.70;;;;;;;19.60;75.85;98524.72;5058066;28;20797;-42
2022/07/15 05:36:25;;;;;;;1.77;1.67;;;;;;;19.71;75.29;98516.69;5056832;28;20050;-41
2022/07/15 05:38:53;;;;;;;2.83;1.67;;;;;;;19.85;74.52;98522.38;5074069;28;20556;-40
2022/07/15 05:41:19;;;;;;;3.03;1.60;;;;;;;19.91;73.12;98518.34;5092326;28;20456;-41
2022/07/15 05:43:45;;;;;;;2.13;1.70;;;;;;;20.00;72.08;98514.03;5073988;28;20042;-40
2022/07/15 05:46:12;;;;;;;2.72;1.80;;;;;;;19.96;70.81;98481.84;5073152;28;20040;-39
2022/07/15 05:48:47;;;;;;;3.78;2.10;;;;;;;20.19;71.03;98524.59;5058513;28;20089;-40
2022/07/15 05:51:13;;;;;;;1.60;1.40;;;;;;;20.15;69.17;98525.84;5073122;28;20425;-40
2022/07/15 05:53:40;;;;;;;3.25;1.67;;;;;;;20.13;69.48;98525.97;5112431;28;20040;-41
2022/07/15 05:56:07;;;;;;;3.40;1.65;;;;;;;20.26;69.55;98525.66;5077504;28;20056;-41
2022/07/15 05:58:33;;;;;;;3.03;1.38;;;;;;;20.19;67.87;98522.78;5073678;28;20503;-41
2022/07/15 06:00:59;;;;;;;2.20;1.90;;;;;;;20.10;68.05;98520.97;5062126;28;20048;-40
2022/07/15 06:03:32;;;;;;;1.85;1.50;;;;;;;20.04;67.85;98508.38;5054268;28;20070;-41
2022/07/15 06:05:59;;;;;;;2.40;1.70;;;;;;;20.30;68.21;98542.91;5071688;28;20044;-40
2022/07/15 06:08:25;;;;;;;3.35;1.77;;;;;;;20.48;68.04;98529.81;5057837;28;20097;-41
2022/07/15 06:10:50;;;;;;;2.47;1.58;;;;;;;20.39;66.53;98506.94;5072382;28;20427;-41
2022/07/15 06:13:20;;;;;;;1.90;1.77;;;;;;;20.58;65.66;98528.81;5090323;28;20048;-40
2022/07/15 06:15:47;;;;;;;6.00;1.90;;;;;;;20.61;65.75;98512.69;5073965;28;20052;-41
2022/07/15 06:18:19;;;;;;;2.63;1.83;;;;;;;20.86;65.76;98515.66;5089331;28;20142;-40
2022/07/15 06:20:45;;;;;;;3.22;2.55;;;;;;;21.06;65.74;98530.44;5082827;28;20246;-40
2022/07/15 06:23:11;;;;;;;4.65;1.80;;;;;;;21.20;63.83;98515.94;5071304;28;20047;-40
2022/07/15 06:25:39;;;;;;;2.28;1.77;;;;;;;21.44;63.28;98510.91;5073293;28;20054;-41
2022/07/15 06:28:05;;;;;;;3.28;2.42;;;;;;;21.86;62.32;98521.72;5077115;28;20562;-39
2022/07/15 06:30:31;;;;;;;3.55;1.60;;;;;;;22.28;59.94;98524.59;5092826;28;20043;-41
2022/07/15 06:32:58;;;;;;;2.50;2.10;;;;;;;22.24;58.90;98517.94;5090806;28;20055;-42
2022/07/15 06:35:27;;;;;;;3.75;1.88;;;;;;;22.14;59.57;98510.06;5074472;28;20048;-42
2022/07/15 06:37:52;;;;;;;1.40;1.20;;;;;;;22.11;58.09;98526.28;5073889;28;20569;-42
2022/07/15 06:40:18;;;;;;;2.17;1.67;;;;;;;22.34;57.80;98516.84;5072936;28;20044;-42
2022/07/15 06:42:44;;;;;;;3.22;1.63;;;;;;;22.95;56.88;98517.72;5080463;28;20543;-40
2022/07/15 06:45:14;;;;;;;2.65;1.50;;;;;;;23.14;54.95;98525.41;5072923;28;20044;-42
2022/07/15 06:47:41;;;;;;;2.50;1.63;;;;;;;23.25;53.49;98533.06;5055949;28;20463;-41
2022/07/15 06:50:07;;;;;;;1.55;1.40;;;;;;;23.66;52.54;98534.03;5071424;28;20039;-41
2022/07/15 06:52:34;;;;;;;2.88;1.83;;;;;;;23.75;52.46;98530.41;5068701;28;20044;-41
2022/07/15 06:55:00;;;;;;;3.38;1.50;;;;;;;24.73;50.41;98528.53;5071634;28;20052;-39
2022/07/15 06:57:30;;;;;;;4.40;1.35;;;;;;;25.62;46.95;98531.69;5066368;28;20067;-40
2022/07/15 06:59:56;;;;;;;2.15;1.50;;;;;;;25.86;45.73;98536.00;5102892;28;20142;-56
2022/07/15 07:02:24;;;;;;;8.05;1.85;;;;;;;25.06;47.75;98550.59;5082979;28;20042;-52
2022/07/15 07:04:50;;;;;;;1.95;1.55;;;;;;;26.03;46.31;98545.53;5064353;28;20044;-47
2022/07/15 07:07:16;;;;;;;1.75;1.65;;;;;;;27.51;42.43;98559.91;5080175;28;20604;-57
2022/07/15 07:09:42;;;;;;;2.38;1.77;;;;;;;27.19;42.72;98553.94;5087042;28;20665;-44
2022/07/15 07:12:08;;;;;;;2.95;1.70;;;;;;;28.90;39.64;98566.34;5067313;28;20070;-43
2022/07/15 07:14:34;;;;;;;2.92;1.52;;;;;;;29.53;38.75;98551.03;5097145;28;20046;-42
2022/07/15 07:17:00;;;;;;;4.72;2.00;;;;;;;30.22;37.45;98559.66;5092492;28;20437;-42
2022/07/15 07:19:26;;;;;;;3.20;1.80;;;;;;;30.95;35.85;98570.38;5059808;28;20043;-46
2022/07/15 07:21:52;;;;;;;4.60;2.10;;;;;;;31.48;34.26;98560.31;5077123;28;20514;-43
2022/07/15 07:24:18;;;;;;;4.15;1.80;;;;;;;31.95;33.26;98580.56;5073443;28;20066;-43
2022/07/15 07:26:44;;;;;;;3.63;1.90;;;;;;;31.83;32.83;98572.34;5070380;28;20044;-46
2022/07/15 07:29:12;;;;;;;2.00;1.80;;;;;;;31.28;32.79;98579.19;5047268;28;20043;-43
2022/07/15 07:31:38;;;;;;;3.65;1.92;;;;;;;31.91;32.38;98576.66;5087150;28;20578;-44
2022/07/15 07:34:03;;;;;;;2.72;1.48;;;;;;;32.61;30.38;98564.75;5070616;28;20035;-43
2022/07/15 07:36:29;;;;;;;4.32;2.17;;;;;;;31.23;32.78;98567.44;5086994;28;20040;-45
2022/07/15 07:38:55;;;;;;;4.70;2.10;;;;;;;30.60;33.55;98565.28;5089463;28;20126;-47
2022/07/15 07:41:23;;;;;;;5.65;1.80;;;;;;;30.69;33.71;98582.81;5071985;28;20047;-42
2022/07/15 07:43:49;;;;;;;3.85;2.20;;;;;;;30.97;33.75;98569.13;5094717;28;20515;-43
2022/07/15 07:46:16;;;;;;;5.20;2.08;;;;;;;31.97;32.36;98573.13;5098668;28;20131;-43
2022/07/15 07:48:42;;;;;;;3.25;2.17;;;;;;;33.25;31.16;98579.69;5098073;28;20499;-41
2022/07/15 07:51:09;;;;;;;6.82;2.10;;;;;;;34.08;29.57;98574.47;5071372;28;20096;-42
2022/07/15 07:53:35;;;;;;;2.33;2.10;;;;;;;33.48;29.44;98565.56;5091339;28;20040;-44
2022/07/15 07:56:00;;;;;;;2.42;1.90;;;;;;;32.99;29.35;98572.69;5090443;28;20515;-43
2022/07/15 07:58:26;;;;;;;2.58;1.50;;;;;;;32.74;29.47;98558.47;5054719;28;20048;-43
2022/07/15 08:00:56;;;;;;;10.68;1.90;;;;;;;32.22;30.46;98565.94;5081906;28;20046;-45
2022/07/15 08:03:22;;;;;;;2.83;1.90;;;;;;;32.04;31.03;98573.03;5090190;28;20093;-44
2022/07/15 08:05:48;;;;;;;4.03;1.98;;;;;;;33.56;29.17;98562.53;5054782;28;20040;-44
2022/07/15 08:08:19;;;;;;;4.13;1.90;;;;;;;34.17;28.17;98562.31;5070207;28;20042;-44
2022/07/15 08:10:47;;;;;;;3.95;1.90;;;;;;;34.24;27.91;98554.94;5055199;28;20507;-43
2022/07/15 08:13:13;;;;;;;;;;;;;;;33.42;28.04;98572.66;5088523;28;20044;-41
2022/07/15 08:15:39;;;;;;;4.00;1.70;;;;;;;31.83;30.38;98553.53;5086646;28;20387;-43
2022/07/15 08:18:05;;;;;;;2.72;1.70;;;;;;;30.90;31.97;98548.69;5053756;28;20047;-44
2022/07/15 08:20:32;;;;;;;2.95;1.55;;;;;;;30.63;32.06;98554.09;5076397;28;20122;-43
2022/07/15 08:22:58;;;;;;;2.28;1.30;;;;;;;29.52;32.88;98537.88;5059040;28;20079;-46
2022/07/15 08:25:29;;;;;;;1.88;1.77;;;;;;;29.06;33.81;98544.63;5069794;28;20044;-45
2022/07/15 08:27:56;;;;;;;5.32;1.50;;;;;;;31.32;30.74;98563.47;5070010;28;20614;-43
2022/07/15 08:30:22;;;;;;;2.95;1.40;;;;;;;32.84;28.66;98568.72;5070187;28;20063;-45
2022/07/15 08:32:48;;;;;;;2.30;1.60;;;;;;;34.02;27.26;98578.91;5074205;28;20036;-47
2022/07/15 08:35:14;;;;;;;2.00;1.80;;;;;;;34.26;26.56;98574.44;5106524;28;20093;-43
2022/07/15 08:37:40;;;;;;;5.25;1.60;;;;;;;34.04;27.03;98571.44;5082496;28;20096;-42
2022/07/15 08:40:09;;;;;;;3.75;1.48;;;;;;;33.50;28.07;98583.13;5071204;28;20647;-45
2022/07/15 08:42:35;;;;;;;3.90;2.35;;;;;;;32.46;29.60;98582.28;5089230;28;20423;-43
2022/07/15 08:45:01;;;;;;;3.55;1.75;;;;;;;31.47;28.40;98593.59;5053959;28;20100;-47
2022/07/15 08:47:31;;;;;;;9.07;2.28;;;;;;;30.36;30.06;98584.63;5064316;28;20044;-44
2022/07/15 08:49:57;;;;;;;1.92;1.50;;;;;;;32.00;28.05;98591.50;5081393;28;20048;-45
2022/07/15 08:52:24;;;;;;;1.92;1.80;;;;;;;33.33;26.14;98602.84;5053085;28;20039;-47
2022/07/15 08:54:51;;;;;;;2.28;1.70;;;;;;;34.38;24.70;98609.56;5063458;28;20032;-43
2022/07/15 08:57:17;;;;;;;2.17;1.90;;;;;;;33.83;24.94;98606.19;5095393;28;20055;-41
2022/07/15 08:59:45;;;;;;;2.47;1.70;;;;;;;34.27;24.48;98616.56;5075026;28;20590;-42
2022/07/15 09:02:14;;;;;;;;;;;;;;;34.09;24.94;98613.91;5091661;28;20692;-44
2022/07/15 09:05:17;;;;;;;2.53;1.58;;;;;;;34.71;24.83;98609.84;5070188;28;19923;-44
2022/07/15 09:08:10;;;;;;;1.73;1.63;;;;;;;35.96;22.24;98623.69;5088777;28;20527;-43
2022/07/15 09:10:50;;;;;;;4.30;1.40;;;;;;;36.26;22.46;98611.81;5086077;28;20619;-44
2022/07/15 09:13:40;;;;;;;3.28;1.25;;;;;;;35.46;23.05;98609.13;5088250;28;20143;-44
2022/07/15 09:16:19;;;;;;;2.70;1.88;;;;;;;35.06;23.49;98611.75;5086246;28;20436;-43
2022/07/15 09:18:45;;;;;;;5.35;1.60;;;;;;;35.18;23.52;98609.88;5073015;28;20055;-46
2022/07/15 09:21:26;;;;;;;2.47;1.65;;;;;;;33.73;24.92;98609.41;5091376;28;20043;-43
2022/07/15 09:23:54;;;;;;;1.50;1.33;;;;;;;32.07;26.63;98600.34;5069308;28;20052;-44
2022/07/15 09:26:28;;;;;;;3.17;1.42;;;;;;;33.63;24.08;98593.75;5070536;28;20097;-44
2022/07/15 09:28:55;;;;;;;1.70;1.60;;;;;;;34.78;22.86;98605.19;5088903;28;20073;-45
2022/07/15 09:34:18;;;;;;;3.65;1.98;;;;;;;35.68;22.01;98610.16;5079316;28;20119;-47
2022/07/15 09:36:57;;;;;;;3.05;1.73;;;;;;;35.60;22.47;98605.91;5080944;28;20062;-45
2022/07/15 09:39:24;;;;;;;1.70;1.60;;;;;;;36.43;21.03;98610.75;5084570;28;20036;-45
2022/07/15 09:41:51;;;;;;;2.00;1.80;;;;;;;37.58;20.25;98612.75;5091125;28;20125;-43
2022/07/15 09:44:20;;;;;;;4.82;2.20;;;;;;;38.54;20.29;98610.28;5092223;28;20278;-45
2022/07/15 09:46:48;;;;;;;2.92;2.00;;;;;;;40.30;19.03;98609.56;5099842;28;21455;-44
2022/07/15 09:49:32;;;;;;;2.33;2.00;;;;;;;41.22;17.88;98626.69;5073219;28;20044;-43
2022/07/15 09:51:59;;;;;;;3.55;2.55;;;;;;;41.66;17.32;98613.19;5071115;28;20040;-43
2022/07/15 09:54:36;;;;;;;2.95;2.13;;;;;;;40.37;16.75;98622.88;5090216;28;20516;-41
2022/07/15 09:57:07;;;;;;;6.28;2.00;;;;;;;38.59;18.13;98613.03;5090867;28;20070;-44
2022/07/15 09:59:34;;;;;;;2.03;1.83;;;;;;;38.49;18.13;98623.81;5090305;28;20104;-47
2022/07/15 10:01:59;;;;;;;4.95;1.90;;;;;;;39.20;18.08;98613.47;5097468;28;20101;-49
2022/07/15 10:04:28;;;;;;;4.45;2.40;;;;;;;40.38;17.36;98629.97;5110247;28;20457;-41
2022/07/15 10:06:55;;;;;;;3.80;1.90;;;;;;;40.32;16.30;98629.16;5088289;28;20035;-41
2022/07/15 10:09:27;;;;;;;2.78;1.00;;;;;;;39.05;16.76;98613.41;5096389;28;20542;-44
2022/07/15 10:11:55;;;;;;;4.90;1.88;;;;;;;37.56;17.70;98604.06;5075236;28;20040;-43
2022/07/15 10:14:45;;;;;;;2.05;1.50;;;;;;;36.33;19.40;98605.16;5081191;28;20168;-45
2022/07/15 10:17:52;;;;;;;2.22;1.65;;;;;;;35.17;20.77;98610.91;5082477;28;20039;-44
2022/07/15 10:20:31;;;;;;;3.17;1.75;;;;;;;36.29;19.78;98606.72;5085755;28;20127;-47
2022/07/15 10:23:12;;;;;;;2.78;1.50;;;;;;;37.81;18.53;98613.56;5076283;28;20503;-45
2022/07/15 10:25:48;;;;;;;3.10;1.58;;;;;;;35.66;19.84;98607.69;5086643;28;20150;-45
2022/07/15 10:28:21;;;;;;;4.25;1.33;;;;;;;35.57;19.85;98601.00;5097480;28;20163;-47
2022/07/15 10:31:20;;;;;;;3.38;2.47;;;;;;;38.01;18.12;98589.38;5064148;28;20058;-45
2022/07/15 10:34:07;;;;;;;2.25;1.10;;;;;;;37.06;18.65;98609.56;5092198;28;20089;-43
2022/07/15 10:36:48;;;;;;;4.07;1.67;;;;;;;34.74;20.44;98601.31;5078097;28;20073;-44
2022/07/15 10:39:17;;;;;;;2.25;1.38;;;;;;;35.12;20.13;98590.00;5076072;28;20036;-43
2022/07/15 10:42:03;;;;;;;3.60;1.85;;;;;;;36.55;19.57;98601.72;5100272;28;20423;-44
2022/07/15 10:44:36;;;;;;;3.63;1.05;;;;;;;36.67;18.79;98608.75;5082332;28;20043;-43
2022/07/15 10:47:11;;;;;;;2.45;1.67;;;;;;;35.45;20.72;98607.47;5080623;28;20036;-44
2022/07/15 10:49:38;;;;;;;1.67;1.30;;;;;;;35.81;20.21;98617.16;5079824;28;20039;-43
2022/07/15 10:52:14;;;;;;;2.10;1.08;;;;;;;33.60;22.21;98609.56;5089676;28;20450;-44
2022/07/15 10:54:43;;;;;;;3.17;1.10;;;;;;;32.40;23.88;98629.72;5097295;28;20090;-42
2022/07/15 10:57:10;;;;;;;5.45;1.20;;;;;;;30.84;25.18;98625.53;5079204;28;20498;-43
2022/07/15 10:59:40;;;;;;;1.90;1.35;;;;;;;30.96;25.98;98618.50;5096709;28;20036;-43
2022/07/15 11:02:06;;;;;;;3.67;1.90;;;;;;;32.54;24.19;98650.13;5070796;28;20036;-43
2022/07/15 11:04:33;;;;;;;4.43;1.75;;;;;;;32.39;24.50;98652.31;5097292;28;20066;-45
2022/07/15 11:07:09;;;;;;;2.00;1.50;;;;;;;33.52;23.71;98628.72;5091006;28;20043;-44
2022/07/15 11:10:02;;;;;;;3.10;1.67;;;;;;;33.68;23.48;98622.75;5093179;28;20777;-41
2022/07/15 11:12:31;;;;;;;3.85;1.80;;;;;;;33.88;24.00;98617.09;5091682;28;20572;-44
2022/07/15 11:15:16;;;;;;;4.10;1.40;;;;;;;34.74;23.06;98611.28;5089342;28;20075;-48
2022/07/15 11:17:47;;;;;;;2.15;1.58;;;;;;;32.74;24.95;98610.44;5096237;28;20085;-44
2022/07/15 11:20:16;;;;;;;3.67;1.40;;;;;;;31.16;27.01;98625.72;5093532;28;20131;-42
2022/07/15 11:22:49;;;;;;;3.92;1.30;;;;;;;29.84;28.76;98622.84;5081288;28;20036;-44
2022/07/15 11:25:23;;;;;;;5.03;1.38;;;;;;;28.71;30.57;98612.50;5082069;28;20502;-43
2022/07/15 11:28:09;;;;;;;3.35;1.38;;;;;;;28.76;30.87;98626.16;5090223;28;20071;-42
2022/07/15 11:30:37;;;;;;;4.80;1.38;;;;;;;28.56;31.13;98609.09;5055183;28;20063;-46
2022/07/15 11:33:05;;;;;;;5.55;1.60;;;;;;;29.39;29.88;98627.00;5100557;28;20499;-45
2022/07/15 11:35:53;;;;;;;4.43;1.60;;;;;;;30.19;28.77;98608.34;5099140;28;20069;-43
2022/07/15 11:38:23;;;;;;;7.82;2.25;;;;;;;31.51;27.54;98622.50;5092453;28;20047;-41
2022/07/15 11:46:29;;;;;;;3.05;1.70;;;;;;;33.49;23.75;98635.41;5089550;28;20542;-44
2022/07/15 11:48:56;;;;;;;2.60;1.58;;;;;;;32.93;23.35;98627.44;5090033;28;20093;-41
2022/07/15 11:51:30;;;;;;;2.05;1.33;;;;;;;32.59;23.68;98607.25;5088999;28;20036;-44
2022/07/15 11:53:58;;;;;;;5.47;3.72;;;;;;;32.48;24.16;98634.03;5090675;28;20040;-44